Time;durP1;ratioP1;P1;durP2;ratioP2;P2;SDS_P1;SDS_P2;PMS_P1;PMS_P2;Temp;Humidity;BMP_temperature;BMP_pressure;BME280_temperature;BME280_humidity;BME280_pressure;Samples;Min_cycle;Max_cycle;Signal;HPM_P1;HPM_P2
2021/05/03 00:00:02;;;;;;;5.15;4.47;;;;;;;;;;4975911;28;20233;-69
2021/05/03 00:02:29;;;;;;;6.43;4.45;;;;;;;;;;4975653;28;20320;-68
2021/05/03 00:04:55;;;;;;;6.38;4.80;;;;;;;;;;4976106;28;20332;-68
2021/05/03 00:07:22;;;;;;;5.15;4.65;;;;;;;;;;4976040;28;20233;-68
2021/05/03 00:09:50;;;;;;;8.85;4.85;;;;;;;;;;4975072;28;20284;-68
2021/05/03 00:12:17;;;;;;;13.75;5.28;;;;;;;;;;4975662;28;20296;-69
2021/05/03 00:14:44;;;;;;;5.20;4.70;;;;;;;;;;4975692;28;20284;-68
2021/05/03 00:17:10;;;;;;;8.38;4.50;;;;;;;;;;4975590;28;20198;-68
2021/05/03 00:19:37;;;;;;;6.97;6.45;;;;;;;;;;4976110;28;20564;-68
2021/05/03 00:22:04;;;;;;;6.18;4.85;;;;;;;;;;4975812;28;20198;-68
2021/05/03 00:24:31;;;;;;;5.60;4.47;;;;;;;;;;4975502;28;20233;-68
2021/05/03 00:26:59;;;;;;;7.18;4.72;;;;;;;;;;4976100;28;20233;-69
2021/05/03 00:29:26;;;;;;;5.20;4.55;;;;;;;;;;4976117;28;20231;-69
2021/05/03 00:31:52;;;;;;;4.90;4.35;;;;;;;;;;4975321;28;20722;-69
2021/05/03 00:34:19;;;;;;;4.97;4.50;;;;;;;;;;4975215;28;20290;-69
2021/05/03 00:36:46;;;;;;;7.05;4.70;;;;;;;;;;4975535;28;20321;-68
2021/05/03 00:39:12;;;;;;;7.72;5.70;;;;;;;;;;4975512;28;20237;-68
2021/05/03 00:41:39;;;;;;;5.68;4.63;;;;;;;;;;4975154;28;20240;-68
2021/05/03 00:44:07;;;;;;;6.80;4.60;;;;;;;;;;4975844;28;20244;-67
2021/05/03 00:46:34;;;;;;;6.95;5.20;;;;;;;;;;4975057;28;20292;-69
2021/05/03 00:49:01;;;;;;;6.82;6.10;;;;;;;;;;4975290;28;20332;-69
2021/05/03 00:51:28;;;;;;;10.07;5.70;;;;;;;;;;4975720;28;20284;-69
2021/05/03 00:53:55;;;;;;;10.65;5.50;;;;;;;;;;4975298;28;20207;-69
2021/05/03 00:56:22;;;;;;;7.13;5.95;;;;;;;;;;4975197;28;20233;-69
2021/05/03 00:58:49;;;;;;;6.85;6.10;;;;;;;;;;4975396;28;20284;-70
2021/05/03 01:01:16;;;;;;;6.75;5.32;;;;;;;;;;4974859;28;20201;-68
2021/05/03 01:03:43;;;;;;;6.65;5.55;;;;;;;;;;4975152;28;20747;-68
2021/05/03 01:06:10;;;;;;;6.25;5.65;;;;;;;;;;4975094;28;20622;-68
2021/05/03 01:08:37;;;;;;;12.02;6.35;;;;;;;;;;4974678;28;20222;-69
2021/05/03 01:11:04;;;;;;;9.27;5.85;;;;;;;;;;4974754;28;20247;-68
2021/05/03 01:13:31;;;;;;;6.38;5.80;;;;;;;;;;4974694;28;20284;-68
2021/05/03 01:15:57;;;;;;;6.20;5.38;;;;;;;;;;4974623;28;20240;-67
2021/05/03 01:18:26;;;;;;;7.22;6.53;;;;;;;;;;4974605;28;20297;-69
2021/05/03 01:20:57;;;;;;;6.68;5.97;;;;;;;;;;4974516;28;20655;-68
2021/05/03 01:23:24;;;;;;;8.18;5.72;;;;;;;;;;4974537;28;20252;-68
2021/05/03 01:25:51;;;;;;;7.78;5.43;;;;;;;;;;4975074;28;20602;-69
2021/05/03 01:28:18;;;;;;;7.22;5.70;;;;;;;;;;4975040;28;20221;-69
2021/05/03 01:30:45;;;;;;;6.05;5.55;;;;;;;;;;4975049;28;20284;-69
2021/05/03 01:33:12;;;;;;;9.90;6.57;;;;;;;;;;4974779;28;20284;-68
2021/05/03 01:35:40;;;;;;;7.45;5.55;;;;;;;;;;4974432;28;20296;-68
2021/05/03 01:38:08;;;;;;;9.25;5.80;;;;;;;;;;4974778;28;20198;-69
2021/05/03 01:40:37;;;;;;;7.75;6.95;;;;;;;;;;4974387;28;20209;-68
2021/05/03 01:43:11;;;;;;;7.72;5.40;;;;;;;;;;4974370;28;20248;-68
2021/05/03 01:45:38;;;;;;;6.90;6.20;;;;;;;;;;4974632;28;20239;-68
2021/05/03 01:48:06;;;;;;;9.90;6.65;;;;;;;;;;4974560;28;20287;-69
2021/05/03 01:50:32;;;;;;;8.57;7.00;;;;;;;;;;4974606;28;20197;-68
2021/05/03 01:52:59;;;;;;;8.07;6.10;;;;;;;;;;4974575;28;20233;-69
2021/05/03 01:55:27;;;;;;;7.63;6.68;;;;;;;;;;4975078;28;20284;-69
2021/05/03 01:57:54;;;;;;;7.63;6.13;;;;;;;;;;4974757;28;20233;-69
2021/05/03 02:00:21;;;;;;;8.75;5.90;;;;;;;;;;4974278;28;20284;-69
2021/05/03 02:02:48;;;;;;;6.47;5.70;;;;;;;;;;4974242;28;20365;-69
2021/05/03 02:05:17;;;;;;;5.95;5.35;;;;;;;;;;4974478;28;20333;-69
2021/05/03 02:07:44;;;;;;;6.78;5.78;;;;;;;;;;4975216;28;20259;-69
2021/05/03 02:10:11;;;;;;;10.57;6.05;;;;;;;;;;4975050;28;20284;-69
2021/05/03 02:12:39;;;;;;;6.20;5.70;;;;;;;;;;4974463;28;20345;-68
2021/05/03 02:15:07;;;;;;;7.80;6.30;;;;;;;;;;4974469;28;20285;-68
2021/05/03 02:17:34;;;;;;;7.20;6.50;;;;;;;;;;4974123;28;20328;-68
2021/05/03 02:20:00;;;;;;;5.72;5.15;;;;;;;;;;4973969;28;20651;-68
2021/05/03 02:22:27;;;;;;;6.53;5.93;;;;;;;;;;4974386;28;20300;-69
2021/05/03 02:24:54;;;;;;;7.13;6.07;;;;;;;;;;4974040;28;20245;-69
2021/05/03 02:27:21;;;;;;;7.18;6.10;;;;;;;;;;4974300;28;20293;-69
2021/05/03 02:29:48;;;;;;;7.63;6.25;;;;;;;;;;4973971;28;20586;-68
2021/05/03 02:32:15;;;;;;;6.88;6.18;;;;;;;;;;4974189;28;20289;-68
2021/05/03 02:34:42;;;;;;;8.02;6.50;;;;;;;;;;4978147;28;20198;-68
2021/05/03 02:37:09;;;;;;;7.20;6.50;;;;;;;;;;4978584;28;20229;-68
2021/05/03 02:39:36;;;;;;;8.27;6.40;;;;;;;;;;4977708;28;20236;-68
2021/05/03 02:42:03;;;;;;;9.73;8.02;;;;;;;;;;4977941;28;20198;-68
2021/05/03 02:44:30;;;;;;;7.93;6.45;;;;;;;;;;4977621;28;20296;-68
2021/05/03 02:46:57;;;;;;;9.88;6.90;;;;;;;;;;4977202;28;20289;-67
2021/05/03 02:49:24;;;;;;;8.07;6.63;;;;;;;;;;4977149;28;20252;-68
2021/05/03 02:51:51;;;;;;;7.20;6.50;;;;;;;;;;4978127;28;20298;-68
2021/05/03 02:54:18;;;;;;;7.80;6.30;;;;;;;;;;4977409;28;20336;-69
2021/05/03 02:56:44;;;;;;;8.65;6.53;;;;;;;;;;4977095;28;20787;-69
2021/05/03 02:59:11;;;;;;;9.18;7.60;;;;;;;;;;4977051;28;20293;-69
2021/05/03 03:01:38;;;;;;;10.05;7.28;;;;;;;;;;4977334;28;20232;-69
2021/05/03 03:04:06;;;;;;;9.73;7.45;;;;;;;;;;4976914;28;20665;-69
2021/05/03 03:06:32;;;;;;;7.60;6.88;;;;;;;;;;4977508;28;20281;-69
2021/05/03 03:08:59;;;;;;;6.82;6.00;;;;;;;;;;4977292;28;20353;-69
2021/05/03 03:11:27;;;;;;;7.10;6.40;;;;;;;;;;4977084;28;20201;-69
2021/05/03 03:13:54;;;;;;;8.40;7.00;;;;;;;;;;4977088;28;20198;-68
2021/05/03 03:16:22;;;;;;;10.18;7.20;;;;;;;;;;4976944;28;20611;-70
2021/05/03 03:18:49;;;;;;;7.68;6.78;;;;;;;;;;4976917;28;20245;-69
2021/05/03 03:21:17;;;;;;;9.65;7.07;;;;;;;;;;4976889;28;20291;-68
2021/05/03 03:23:44;;;;;;;11.50;7.35;;;;;;;;;;4977228;28;20281;-68
2021/05/03 03:26:10;;;;;;;10.00;7.65;;;;;;;;;;4977006;28;20738;-68
2021/05/03 03:28:38;;;;;;;9.10;7.63;;;;;;;;;;4976691;28;20312;-69
2021/05/03 03:31:05;;;;;;;13.60;8.50;;;;;;;;;;4977051;28;20660;-69
2021/05/03 03:33:32;;;;;;;8.10;7.30;;;;;;;;;;4976790;28;20289;-69
2021/05/03 03:35:58;;;;;;;8.38;7.53;;;;;;;;;;4977026;28;20281;-69
2021/05/03 03:38:26;;;;;;;9.13;7.28;;;;;;;;;;4976590;28;20289;-69
2021/05/03 03:40:53;;;;;;;9.45;8.05;;;;;;;;;;4976278;28;20288;-69
2021/05/03 03:43:20;;;;;;;9.18;7.15;;;;;;;;;;4975991;28;20197;-68
2021/05/03 03:45:47;;;;;;;11.85;7.88;;;;;;;;;;4975899;28;20225;-69
2021/05/03 03:48:13;;;;;;;10.90;8.15;;;;;;;;;;4976060;28;20268;-69
2021/05/03 03:50:40;;;;;;;8.45;7.07;;;;;;;;;;4976092;28;20200;-69
2021/05/03 03:53:07;;;;;;;11.32;8.23;;;;;;;;;;4976103;28;20240;-69
2021/05/03 03:55:34;;;;;;;9.00;7.65;;;;;;;;;;4976348;28;20332;-68
2021/05/03 03:58:01;;;;;;;10.05;7.82;;;;;;;;;;4968453;28;20198;-69
2021/05/03 04:00:29;;;;;;;8.80;7.90;;;;;;;;;;4963371;28;20206;-68
2021/05/03 04:02:56;;;;;;;11.02;8.05;;;;;;;;;;4956272;28;20234;-68
2021/05/03 04:05:29;;;;;;;9.18;7.90;;;;;;;;;;4956706;28;20727;-69
2021/05/03 04:07:57;;;;;;;10.88;8.20;;;;;;;;;;4956147;28;20198;-69
2021/05/03 04:10:37;;;;;;;7.85;7.05;;;;;;;;;;4956645;28;20231;-69
2021/05/03 04:21:25;;;;;;;9.82;7.95;;;;;;;;;;4956406;29;20185;-68
2021/05/03 04:23:56;;;;;;;9.32;8.30;;;;;;;;;;4956246;28;20186;-69
2021/05/03 04:26:24;;;;;;;10.48;8.43;;;;;;;;;;4957303;28;20605;-68
2021/05/03 04:28:52;;;;;;;9.50;8.55;;;;;;;;;;4972867;28;20265;-68
2021/05/03 04:31:19;;;;;;;10.32;8.35;;;;;;;;;;4975304;28;20204;-68
2021/05/03 04:33:46;;;;;;;10.40;7.93;;;;;;;;;;4975434;28;20292;-70
2021/05/03 04:36:13;;;;;;;9.05;7.28;;;;;;;;;;4975228;28;20258;-71
2021/05/03 04:38:40;;;;;;;10.25;8.43;;;;;;;;;;4975227;28;20213;-71
2021/05/03 04:41:08;;;;;;;9.30;8.30;;;;;;;;;;4975437;28;20337;-70
2021/05/03 04:43:34;;;;;;;8.63;7.47;;;;;;;;;;4975187;28;20625;-71
2021/05/03 04:46:02;;;;;;;11.50;8.48;;;;;;;;;;4975387;28;20285;-70
2021/05/03 04:48:29;;;;;;;12.18;8.68;;;;;;;;;;4974956;28;20304;-71
2021/05/03 04:50:55;;;;;;;14.18;8.95;;;;;;;;;;4975018;28;20234;-71
2021/05/03 04:53:22;;;;;;;11.50;8.27;;;;;;;;;;4974979;28;20675;-70
2021/05/03 04:55:49;;;;;;;15.93;9.60;;;;;;;;;;4983325;28;20193;-70
2021/05/03 04:58:16;;;;;;;10.95;8.75;;;;;;;;;;4995025;28;20315;-70
2021/05/03 05:00:43;;;;;;;10.60;8.95;;;;;;;;;;4973071;28;20203;-70
2021/05/03 05:03:10;;;;;;;13.55;9.52;;;;;;;;;;4976024;28;20284;-70
2021/05/03 05:05:39;;;;;;;11.48;9.13;;;;;;;;;;4974681;28;20233;-70
2021/05/03 05:08:06;;;;;;;13.85;10.20;;;;;;;;;;4975488;28;20197;-70
2021/05/03 05:10:33;;;;;;;10.32;9.07;;;;;;;;;;4974741;28;20648;-70
2021/05/03 05:13:00;;;;;;;12.05;9.52;;;;;;;;;;4975073;28;20230;-71
2021/05/03 05:15:27;;;;;;;11.73;10.48;;;;;;;;;;4974569;28;20198;-72
2021/05/03 05:17:53;;;;;;;19.15;9.85;;;;;;;;;;4974624;28;20201;-70
2021/05/03 05:20:21;;;;;;;10.48;8.57;;;;;;;;;;4974767;28;20560;-72
2021/05/03 05:22:48;;;;;;;12.43;9.60;;;;;;;;;;4974096;28;20212;-70
2021/05/03 05:25:15;;;;;;;11.85;10.55;;;;;;;;;;4973340;28;20198;-70
2021/05/03 05:27:41;;;;;;;11.82;9.35;;;;;;;;;;4974620;28;20198;-70
2021/05/03 05:30:09;;;;;;;9.43;8.27;;;;;;;;;;4974302;28;20228;-71
2021/05/03 05:32:36;;;;;;;15.20;10.60;;;;;;;;;;4974295;28;20288;-68
2021/05/03 05:35:03;;;;;;;10.27;8.70;;;;;;;;;;4974371;28;20198;-69
2021/05/03 05:37:30;;;;;;;11.55;8.55;;;;;;;;;;4974699;28;20252;-68
2021/05/03 05:39:57;;;;;;;10.00;8.55;;;;;;;;;;4974446;28;20268;-70
2021/05/03 05:42:24;;;;;;;10.02;9.00;;;;;;;;;;4974391;28;20294;-69
2021/05/03 05:44:51;;;;;;;9.35;8.25;;;;;;;;;;4974458;28;20241;-69
2021/05/03 05:47:17;;;;;;;14.98;11.23;;;;;;;;;;4974081;28;20289;-69
2021/05/03 05:49:44;;;;;;;12.90;10.65;;;;;;;;;;4974092;28;20217;-69
2021/05/03 05:52:11;;;;;;;12.02;10.60;;;;;;;;;;4974240;28;20204;-69
2021/05/03 05:54:39;;;;;;;12.38;9.70;;;;;;;;;;4974518;28;20284;-68
2021/05/03 05:57:06;;;;;;;11.32;9.52;;;;;;;;;;4975033;28;20287;-69
2021/05/03 05:59:32;;;;;;;10.90;9.80;;;;;;;;;;4974667;28;20289;-68
2021/05/03 06:01:59;;;;;;;15.43;10.90;;;;;;;;;;4974377;28;20230;-68
2021/05/03 06:04:26;;;;;;;14.90;10.50;;;;;;;;;;4974664;28;20276;-71
2021/05/03 06:06:53;;;;;;;14.88;11.05;;;;;;;;;;4974262;28;20293;-68
2021/05/03 06:09:20;;;;;;;12.45;9.63;;;;;;;;;;4978173;28;20222;-69
2021/05/03 06:11:47;;;;;;;10.02;9.02;;;;;;;;;;4977894;28;20351;-69
2021/05/03 06:14:14;;;;;;;13.88;9.40;;;;;;;;;;4978112;28;20271;-69
2021/05/03 06:16:41;;;;;;;20.05;10.27;;;;;;;;;;4978445;28;20281;-68
2021/05/03 06:19:08;;;;;;;12.00;10.70;;;;;;;;;;4978228;28;20249;-69
2021/05/03 06:21:34;;;;;;;9.52;8.35;;;;;;;;;;4977940;28;20608;-68
2021/05/03 06:24:01;;;;;;;14.30;10.02;;;;;;;;;;4977649;28;20205;-69
2021/05/03 06:26:28;;;;;;;15.82;9.45;;;;;;;;;;4977796;28;20284;-68
2021/05/03 06:28:55;;;;;;;12.48;8.52;;;;;;;;;;4977389;28;20222;-68
2021/05/03 06:31:22;;;;;;;9.73;7.97;;;;;;;;;;4977741;28;20194;-68
2021/05/03 06:33:49;;;;;;;12.60;8.75;;;;;;;;;;4977955;28;20233;-69
2021/05/03 06:36:16;;;;;;;12.98;7.90;;;;;;;;;;4977360;28;20209;-71
2021/05/03 06:38:43;;;;;;;9.68;7.30;;;;;;;;;;4977697;28;20293;-69
2021/05/03 06:41:10;;;;;;;9.15;7.60;;;;;;;;;;4977297;28;20199;-69
2021/05/03 06:43:36;;;;;;;11.85;8.20;;;;;;;;;;4977269;28;20285;-70
2021/05/03 06:46:04;;;;;;;12.75;8.70;;;;;;;;;;4978032;28;20202;-69
2021/05/03 06:48:31;;;;;;;10.80;8.40;;;;;;;;;;4977521;28;20258;-71
2021/05/03 06:50:58;;;;;;;11.93;8.25;;;;;;;;;;4977341;28;20249;-71
2021/05/03 06:53:25;;;;;;;8.40;5.97;;;;;;;;;;4977578;28;20277;-68
2021/05/03 06:55:52;;;;;;;10.10;8.13;;;;;;;;;;4977079;28;20663;-71
2021/05/03 06:58:19;;;;;;;10.98;8.55;;;;;;;;;;4977075;28;20229;-68
2021/05/03 07:00:46;;;;;;;8.02;7.22;;;;;;;;;;4977237;28;20234;-68
2021/05/03 07:03:13;;;;;;;9.02;7.88;;;;;;;;;;4977210;28;20703;-68
2021/05/03 07:05:40;;;;;;;10.45;7.65;;;;;;;;;;4977181;28;20241;-68
2021/05/03 07:08:09;;;;;;;13.75;7.75;;;;;;;;;;4977156;28;20738;-68
2021/05/03 07:10:38;;;;;;;10.68;7.38;;;;;;;;;;4976692;28;20254;-68
2021/05/03 07:13:05;;;;;;;10.73;7.35;;;;;;;;;;4977999;28;20202;-68
2021/05/03 07:15:32;;;;;;;15.02;8.40;;;;;;;;;;4976887;28;20256;-68
2021/05/03 07:17:58;;;;;;;7.30;6.60;;;;;;;;;;4977015;28;20264;-68
2021/05/03 07:20:26;;;;;;;8.23;7.43;;;;;;;;;;4976783;28;20198;-68
2021/05/03 07:22:53;;;;;;;12.23;7.78;;;;;;;;;;4976529;28;20199;-68
2021/05/03 07:25:20;;;;;;;9.50;6.45;;;;;;;;;;4977008;28;20661;-68
2021/05/03 07:27:47;;;;;;;11.10;6.18;;;;;;;;;;4976387;28;20673;-69
2021/05/03 07:30:14;;;;;;;17.67;6.15;;;;;;;;;;4976144;28;20265;-69
2021/05/03 07:32:41;;;;;;;8.95;6.57;;;;;;;;;;4976767;28;20200;-67
2021/05/03 07:35:09;;;;;;;7.18;6.50;;;;;;;;;;4977247;28;20201;-67
2021/05/03 07:37:37;;;;;;;7.75;6.75;;;;;;;;;;4976885;28;20199;-69
2021/05/03 07:40:04;;;;;;;8.55;7.10;;;;;;;;;;4976370;28;20537;-68
2021/05/03 07:42:30;;;;;;;15.07;7.10;;;;;;;;;;4976066;28;20205;-68
2021/05/03 07:44:57;;;;;;;8.88;7.35;;;;;;;;;;4976048;28;20233;-69
2021/05/03 07:47:25;;;;;;;11.20;6.35;;;;;;;;;;4975959;28;20235;-69
2021/05/03 07:49:53;;;;;;;8.60;7.38;;;;;;;;;;4976241;28;20219;-70
2021/05/03 07:52:20;;;;;;;10.25;8.00;;;;;;;;;;4975985;28;20208;-69
2021/05/03 07:54:48;;;;;;;11.63;6.43;;;;;;;;;;4976272;28;20336;-70
2021/05/03 07:57:14;;;;;;;11.25;7.32;;;;;;;;;;4975902;28;20251;-69
2021/05/03 07:59:41;;;;;;;9.75;7.47;;;;;;;;;;4976538;28;20293;-68
2021/05/03 08:02:08;;;;;;;8.40;6.68;;;;;;;;;;4975343;28;20687;-69
2021/05/03 08:04:35;;;;;;;9.13;6.93;;;;;;;;;;4975842;28;20648;-69
2021/05/03 08:07:02;;;;;;;9.68;7.47;;;;;;;;;;4975636;28;20677;-69
2021/05/03 08:09:28;;;;;;;7.70;5.85;;;;;;;;;;4975995;28;20261;-69
2021/05/03 08:11:56;;;;;;;6.13;5.53;;;;;;;;;;4975562;28;20241;-69
2021/05/03 08:14:23;;;;;;;8.40;5.90;;;;;;;;;;4975482;28;20291;-68
2021/05/03 08:16:54;;;;;;;11.90;7.00;;;;;;;;;;4975409;28;20241;-69
2021/05/03 08:19:22;;;;;;;8.60;7.10;;;;;;;;;;4975949;28;20276;-68
2021/05/03 08:21:49;;;;;;;7.03;5.93;;;;;;;;;;4975383;28;20208;-68
2021/05/03 08:24:15;;;;;;;8.07;6.70;;;;;;;;;;4975590;28;20291;-69
2021/05/03 08:26:42;;;;;;;8.30;5.72;;;;;;;;;;4975573;28;20306;-69
2021/05/03 08:29:10;;;;;;;10.25;7.20;;;;;;;;;;4975844;28;20224;-68
2021/05/03 08:31:37;;;;;;;8.75;7.05;;;;;;;;;;4974976;28;20709;-69
2021/05/03 08:34:04;;;;;;;7.95;6.30;;;;;;;;;;4975205;28;20627;-68
2021/05/03 08:36:30;;;;;;;7.03;6.32;;;;;;;;;;4975069;28;20203;-69
2021/05/03 08:38:57;;;;;;;10.23;6.65;;;;;;;;;;4975378;28;20618;-69
2021/05/03 08:41:24;;;;;;;9.80;7.35;;;;;;;;;;4975339;28;20288;-70
2021/05/03 08:43:52;;;;;;;7.47;6.17;;;;;;;;;;4975320;28;20611;-67
2021/05/03 08:46:27;;;;;;;8.63;6.00;;;;;;;;;;4975027;28;20455;-69
2021/05/03 08:48:59;;;;;;;13.82;5.82;;;;;;;;;;4975255;28;20219;-70
2021/05/03 08:51:33;;;;;;;8.30;6.50;;;;;;;;;;4975483;28;20651;-69
2021/05/03 08:54:06;;;;;;;8.77;6.40;;;;;;;;;;4975112;28;20199;-67
2021/05/03 08:56:33;;;;;;;8.75;6.32;;;;;;;;;;4975689;28;20848;-68
2021/05/03 08:59:00;;;;;;;7.00;6.20;;;;;;;;;;4975406;28;20201;-69
2021/05/03 09:01:27;;;;;;;12.67;6.77;;;;;;;;;;4975134;28;20210;-68
2021/05/03 09:03:55;;;;;;;8.65;6.47;;;;;;;;;;4974358;28;20796;-69
2021/05/03 09:06:22;;;;;;;8.88;6.57;;;;;;;;;;4974625;28;20211;-69
2021/05/03 09:09:00;;;;;;;9.67;6.30;;;;;;;;;;4975141;28;20563;-69
2021/05/03 09:11:27;;;;;;;6.75;6.05;;;;;;;;;;4974572;28;20932;-68
2021/05/03 09:14:06;;;;;;;6.90;6.30;;;;;;;;;;4974342;28;20207;-68
2021/05/03 09:16:34;;;;;;;6.40;5.25;;;;;;;;;;4975409;28;20275;-68
2021/05/03 09:19:03;;;;;;;9.77;6.45;;;;;;;;;;4974623;28;20243;-69
2021/05/03 09:21:31;;;;;;;6.53;5.83;;;;;;;;;;4974545;28;20209;-69
2021/05/03 09:24:17;;;;;;;7.17;6.03;;;;;;;;;;4974594;28;20449;-69
2021/05/03 09:26:46;;;;;;;8.33;6.20;;;;;;;;;;4974812;28;20521;-69
2021/05/03 09:29:26;;;;;;;6.93;6.23;;;;;;;;;;4974674;28;20483;-69
2021/05/03 09:32:00;;;;;;;8.17;7.13;;;;;;;;;;4974409;28;21033;-69
2021/05/03 09:34:27;;;;;;;7.20;6.50;;;;;;;;;;4974320;28;20531;-68
2021/05/03 09:36:54;;;;;;;7.50;5.63;;;;;;;;;;4974656;28;20229;-68
2021/05/03 09:39:30;;;;;;;8.87;6.20;;;;;;;;;;4974642;28;20483;-69
2021/05/03 09:41:56;;;;;;;8.97;6.10;;;;;;;;;;4974324;28;20425;-69
2021/05/03 09:44:23;;;;;;;6.83;6.13;;;;;;;;;;4978465;28;20540;-69
2021/05/03 09:46:51;;;;;;;10.20;7.73;;;;;;;;;;4979409;28;20536;-69
2021/05/03 09:49:20;;;;;;;9.33;7.70;;;;;;;;;;4978141;28;20539;-68
2021/05/03 09:51:48;;;;;;;13.23;6.70;;;;;;;;;;4978508;28;20536;-69
2021/05/03 09:54:17;;;;;;;10.50;7.40;;;;;;;;;;4978107;28;20456;-69
2021/05/03 09:56:54;;;;;;;8.30;7.07;;;;;;;;;;4978153;28;20437;-69
2021/05/03 09:59:43;;;;;;;12.40;7.13;;;;;;;;;;4978626;28;20447;-69
2021/05/03 10:02:14;;;;;;;8.93;7.63;;;;;;;;;;4978320;28;20432;-68
2021/05/03 10:04:52;;;;;;;9.20;6.63;;;;;;;;;;4978880;28;20441;-69
2021/05/03 10:07:20;;;;;;;8.27;6.53;;;;;;;;;;4977744;28;20437;-68
2021/05/03 10:09:49;;;;;;;9.23;8.40;;;;;;;;;;4977568;28;20558;-68
2021/05/03 10:12:17;;;;;;;10.80;7.73;;;;;;;;;;4977831;28;20451;-68
2021/05/03 10:14:44;;;;;;;8.60;7.47;;;;;;;;;;4977788;28;20439;-68
2021/05/03 10:17:11;;;;;;;9.33;7.37;;;;;;;;;;4978794;28;20455;-69
2021/05/03 10:19:38;;;;;;;9.17;7.23;;;;;;;;;;4977926;28;20539;-69
2021/05/03 10:22:06;;;;;;;10.27;7.30;;;;;;;;;;4977424;28;20986;-68
2021/05/03 10:24:32;;;;;;;7.80;7.00;;;;;;;;;;4977970;28;20441;-69
2021/05/03 10:26:59;;;;;;;7.97;6.77;;;;;;;;;;4978007;28;20472;-68
2021/05/03 10:29:27;;;;;;;10.30;8.03;;;;;;;;;;4977476;28;20584;-68
2021/05/03 10:32:01;;;;;;;11.13;9.20;;;;;;;;;;4977454;28;20453;-68
2021/05/03 10:34:38;;;;;;;10.17;7.57;;;;;;;;;;4977775;28;20433;-68
2021/05/03 10:37:26;;;;;;;11.20;7.57;;;;;;;;;;4977370;28;20448;-68
2021/05/03 10:39:52;;;;;;;8.17;6.93;;;;;;;;;;4977612;28;20535;-69
2021/05/03 10:42:19;;;;;;;8.70;7.80;;;;;;;;;;4977723;28;20441;-68
2021/05/03 10:45:01;;;;;;;7.93;7.13;;;;;;;;;;4977647;28;20510;-69
2021/05/03 10:47:28;;;;;;;8.33;7.53;;;;;;;;;;4977168;28;20448;-68
2021/05/03 10:49:55;;;;;;;9.10;7.03;;;;;;;;;;4977058;28;20469;-69
2021/05/03 10:52:34;;;;;;;11.37;7.77;;;;;;;;;;4977356;28;20782;-68
2021/05/03 10:55:01;;;;;;;8.50;7.60;;;;;;;;;;4976478;28;20437;-68
2021/05/03 10:57:34;;;;;;;9.03;7.93;;;;;;;;;;4977935;28;20483;-68
2021/05/03 11:00:01;;;;;;;7.80;7.00;;;;;;;;;;4977181;28;20451;-69
2021/05/03 11:02:44;;;;;;;10.30;8.80;;;;;;;;;;4976942;28;20483;-68
2021/05/03 11:05:13;;;;;;;8.23;7.43;;;;;;;;;;4977042;28;20910;-69
2021/05/03 11:07:58;;;;;;;8.20;7.40;;;;;;;;;;4977086;28;20441;-68
2021/05/03 11:10:40;;;;;;;10.37;8.10;;;;;;;;;;4976744;28;20519;-69
2021/05/03 11:13:21;;;;;;;8.93;7.40;;;;;;;;;;4976397;28;20492;-69
2021/05/03 11:15:49;;;;;;;8.63;7.43;;;;;;;;;;4976544;28;20476;-68
2021/05/03 11:18:17;;;;;;;9.60;8.70;;;;;;;;;;4976701;28;20445;-70
2021/05/03 11:21:16;;;;;;;8.90;8.00;;;;;;;;;;4977798;28;20499;-68
2021/05/03 11:23:43;;;;;;;9.83;7.47;;;;;;;;;;4977238;28;20440;-68
2021/05/03 11:26:23;;;;;;;9.90;8.30;;;;;;;;;;4977548;28;20452;-68
2021/05/03 11:28:50;;;;;;;8.00;7.20;;;;;;;;;;4976741;28;20480;-69
2021/05/03 11:31:21;;;;;;;8.53;7.73;;;;;;;;;;4976644;28;20452;-69
2021/05/03 11:33:58;;;;;;;7.80;7.00;;;;;;;;;;4976798;28;20528;-69
2021/05/03 11:36:28;;;;;;;11.87;7.80;;;;;;;;;;4976435;28;20436;-70
2021/05/03 11:39:01;;;;;;;10.77;9.33;;;;;;;;;;4976754;28;20836;-68
2021/05/03 11:41:43;;;;;;;9.80;7.73;;;;;;;;;;4977040;28;20446;-69
2021/05/03 11:44:21;;;;;;;8.57;7.67;;;;;;;;;;4976857;28;20516;-68
2021/05/03 11:46:49;;;;;;;10.63;7.70;;;;;;;;;;4976253;28;20446;-68
2021/05/03 11:49:20;;;;;;;10.10;8.10;;;;;;;;;;4976398;28;20481;-69
2021/05/03 11:51:48;;;;;;;7.97;7.27;;;;;;;;;;4976613;28;20445;-68
2021/05/03 11:54:26;;;;;;;8.53;7.70;;;;;;;;;;4976260;28;20449;-67
2021/05/03 11:56:56;;;;;;;7.87;7.13;;;;;;;;;;4975981;28;20440;-69
2021/05/03 11:59:23;;;;;;;12.77;8.00;;;;;;;;;;4976529;28;20456;-68
2021/05/03 12:02:05;;;;;;;9.43;7.67;;;;;;;;;;4975961;28;20793;-68
2021/05/03 12:04:35;;;;;;;8.13;7.33;;;;;;;;;;4975865;28;20436;-68
2021/05/03 12:07:11;;;;;;;9.83;7.50;;;;;;;;;;4975338;28;20421;-68
2021/05/03 12:09:38;;;;;;;7.87;6.83;;;;;;;;;;4976181;28;20475;-68
2021/05/03 12:12:05;;;;;;;8.00;7.30;;;;;;;;;;4976017;28;20444;-68
2021/05/03 12:14:38;;;;;;;11.90;8.37;;;;;;;;;;4975548;28;20444;-67
2021/05/03 12:17:15;;;;;;;10.00;9.00;;;;;;;;;;4975997;28;20440;-68
2021/05/03 12:19:41;;;;;;;9.80;8.80;;;;;;;;;;4975971;28;20832;-68
2021/05/03 12:22:08;;;;;;;15.23;8.90;;;;;;;;;;4976282;28;20972;-68
2021/05/03 12:24:40;;;;;;;11.20;8.20;;;;;;;;;;4975527;28;20946;-68
2021/05/03 12:27:07;;;;;;;12.03;8.40;;;;;;;;;;4975767;28;20437;-67
2021/05/03 12:29:34;;;;;;;15.17;8.67;;;;;;;;;;4975440;28;20571;-67
2021/05/03 12:32:01;;;;;;;9.70;8.00;;;;;;;;;;4975246;28;20950;-67
2021/05/03 12:34:29;;;;;;;12.43;9.13;;;;;;;;;;4975233;28;20463;-68
2021/05/03 12:37:09;;;;;;;10.57;7.90;;;;;;;;;;4975274;28;20489;-68
2021/05/03 12:39:37;;;;;;;11.87;8.90;;;;;;;;;;4975160;28;20476;-69
2021/05/03 12:42:11;;;;;;;8.63;7.70;;;;;;;;;;4975443;28;20442;-64
2021/05/03 12:44:42;;;;;;;9.10;8.30;;;;;;;;;;4975095;28;20499;-67
2021/05/03 12:47:23;;;;;;;9.97;8.37;;;;;;;;;;4974893;28;20460;-67
2021/05/03 12:50:04;;;;;;;17.37;8.70;;;;;;;;;;4975245;28;20469;-67
2021/05/03 12:52:37;;;;;;;10.10;8.40;;;;;;;;;;4974982;28;20928;-64
2021/05/03 12:55:09;;;;;;;10.93;7.80;;;;;;;;;;4975697;28;20901;-68
2021/05/03 12:57:45;;;;;;;8.10;7.17;;;;;;;;;;4970956;28;20533;-66
2021/05/03 13:00:17;;;;;;;11.00;7.70;;;;;;;;;;4963996;28;20458;-67
2021/05/03 13:02:59;;;;;;;11.30;7.27;;;;;;;;;;4953579;28;20987;-67
2021/05/03 13:05:31;;;;;;;9.43;7.13;;;;;;;;;;4955410;28;20448;-67
2021/05/03 13:08:07;;;;;;;7.90;7.20;;;;;;;;;;4954872;28;20956;-68
2021/05/03 13:29:56;;;;;;;10.50;9.30;;;;;;;;;;4974748;28;20969;-62
2021/05/03 13:32:27;;;;;;;8.97;8.07;;;;;;;;;;4974820;28;20461;-68
2021/05/03 13:34:54;;;;;;;8.67;7.87;;;;;;;;;;4974105;28;20524;-67
2021/05/03 13:37:22;;;;;;;10.50;8.93;;;;;;;;;;4974289;28;20444;-68
2021/05/03 13:39:51;;;;;;;8.37;7.67;;;;;;;;;;4974364;28;20959;-62
2021/05/03 13:42:18;;;;;;;9.87;8.90;;;;;;;;;;4974405;28;20869;-62
2021/05/03 13:44:45;;;;;;;9.60;8.37;;;;;;;;;;4974329;28;20492;-69
2021/05/03 13:47:12;;;;;;;11.70;8.87;;;;;;;;;;4974268;28;20919;-67
2021/05/03 13:49:39;;;;;;;13.33;7.97;;;;;;;;;;4974380;28;20570;-67
2021/05/03 13:52:07;;;;;;;8.40;7.60;;;;;;;;;;4974487;28;20468;-64
2021/05/03 13:54:35;;;;;;;10.40;8.77;;;;;;;;;;4974226;28;20532;-67
2021/05/03 13:57:03;;;;;;;24.97;9.17;;;;;;;;;;4973813;28;20445;-70
2021/05/03 13:59:30;;;;;;;11.37;8.37;;;;;;;;;;4974361;28;20453;-66
2021/05/03 14:01:58;;;;;;;8.50;7.70;;;;;;;;;;4974370;28;20508;-67
2021/05/03 14:04:25;;;;;;;32.27;8.67;;;;;;;;;;4974980;28;20457;-68
2021/05/03 14:06:55;;;;;;;11.10;7.70;;;;;;;;;;4974353;28;20509;-71
2021/05/03 14:09:21;;;;;;;10.23;8.80;;;;;;;;;;4973805;28;20511;-73
2021/05/03 14:11:49;;;;;;;10.37;8.60;;;;;;;;;;4974270;28;20449;-76
2021/05/03 14:14:16;;;;;;;9.10;7.83;;;;;;;;;;4974068;28;20437;-75
2021/05/03 14:16:46;;;;;;;8.33;7.63;;;;;;;;;;4974043;28;20477;-65
2021/05/03 14:19:15;;;;;;;8.77;7.77;;;;;;;;;;4974320;28;20961;-66
2021/05/03 14:21:43;;;;;;;8.27;7.10;;;;;;;;;;4974314;28;20457;-66
2021/05/03 14:24:10;;;;;;;9.90;7.13;;;;;;;;;;4973400;28;20445;-66
2021/05/03 14:26:41;;;;;;;7.90;7.20;;;;;;;;;;4974711;28;20871;-66
2021/05/03 14:29:13;;;;;;;16.33;8.03;;;;;;;;;;4975743;28;20891;-66
2021/05/03 14:31:43;;;;;;;8.53;7.70;;;;;;;;;;4978268;28;20429;-66
2021/05/03 14:34:14;;;;;;;9.27;8.37;;;;;;;;;;4977439;28;20804;-66
2021/05/03 14:36:43;;;;;;;9.57;8.60;;;;;;;;;;4977770;28;20444;-67
2021/05/03 14:39:09;;;;;;;9.50;7.50;;;;;;;;;;4977365;28;20491;-65
2021/05/03 14:41:36;;;;;;;8.27;7.47;;;;;;;;;;4977206;28;20500;-65
2021/05/03 14:44:03;;;;;;;8.00;7.30;;;;;;;;;;4977494;28;20749;-66
2021/05/03 14:46:35;;;;;;;7.67;6.87;;;;;;;;;;4977453;28;20476;-66
2021/05/03 14:49:15;;;;;;;7.70;7.00;;;;;;;;;;4977920;28;20434;-66
2021/05/03 14:51:49;;;;;;;7.53;6.83;;;;;;;;;;4977403;28;20454;-66
2021/05/03 14:57:00;;;;;;;8.20;7.50;;;;;;;;;;4972457;28;20939;-66
2021/05/03 14:59:27;;;;;;;9.60;8.60;;;;;;;;;;4977054;28;20520;-66
2021/05/03 15:01:54;;;;;;;9.17;8.27;;;;;;;;;;4976853;28;20480;-66
2021/05/03 15:04:21;;;;;;;10.03;9.10;;;;;;;;;;4976587;28;20608;-67
2021/05/03 15:06:50;;;;;;;9.10;8.40;;;;;;;;;;4976665;28;20443;-67
2021/05/03 15:09:18;;;;;;;9.83;8.80;;;;;;;;;;4976834;28;20485;-67
2021/05/03 15:11:47;;;;;;;10.07;8.03;;;;;;;;;;4977323;28;20460;-67
2021/05/03 15:14:24;;;;;;;8.93;8.03;;;;;;;;;;4976421;28;20449;-68
2021/05/03 15:16:59;;;;;;;9.60;8.40;;;;;;;;;;4976763;28;20437;-67